sensor_id;sensor_type;location;lat;lon;timestamp;P1;durP1;ratioP1;P2;durP2;ratioP2
48859;SDS011;34679;51.436;-2.518;2023-02-28T00:01:30;6.50;;;1.80;;
48859;SDS011;34679;51.436;-2.518;2023-02-28T00:03:57;10.07;;;1.73;;
48859;SDS011;34679;51.436;-2.518;2023-02-28T00:06:23;6.28;;;1.60;;
48859;SDS011;34679;51.436;-2.518;2023-02-28T00:08:49;5.60;;;1.80;;
48859;SDS011;34679;51.436;-2.518;2023-02-28T00:11:15;11.10;;;2.17;;
48859;SDS011;34679;51.436;-2.518;2023-02-28T00:13:42;9.13;;;1.83;;
48859;SDS011;34679;51.436;-2.518;2023-02-28T00:16:12;5.80;;;1.42;;
48859;SDS011;34679;51.436;-2.518;2023-02-28T00:18:40;7.20;;;1.70;;
48859;SDS011;34679;51.436;-2.518;2023-02-28T00:21:06;6.85;;;2.05;;
48859;SDS011;34679;51.436;-2.518;2023-02-28T00:23:33;10.88;;;1.67;;
48859;SDS011;34679;51.436;-2.518;2023-02-28T00:25:58;7.88;;;1.88;;
48859;SDS011;34679;51.436;-2.518;2023-02-28T00:28:24;6.38;;;1.60;;
48859;SDS011;34679;51.436;-2.518;2023-02-28T00:30:50;6.65;;;1.65;;
48859;SDS011;34679;51.436;-2.518;2023-02-28T00:33:16;9.15;;;1.70;;
48859;SDS011;34679;51.436;-2.518;2023-02-28T00:35:42;3.38;;;1.52;;
48859;SDS011;34679;51.436;-2.518;2023-02-28T00:38:11;10.38;;;2.03;;
48859;SDS011;34679;51.436;-2.518;2023-02-28T00:40:37;7.68;;;1.73;;
48859;SDS011;34679;51.436;-2.518;2023-02-28T00:43:02;7.13;;;2.50;;
48859;SDS011;34679;51.436;-2.518;2023-02-28T00:45:29;4.55;;;1.85;;
48859;SDS011;34679;51.436;-2.518;2023-02-28T00:47:54;10.38;;;3.20;;
48859;SDS011;34679;51.436;-2.518;2023-02-28T00:50:20;11.95;;;2.50;;
48859;SDS011;34679;51.436;-2.518;2023-02-28T00:52:46;7.75;;;2.25;;
48859;SDS011;34679;51.436;-2.518;2023-02-28T00:55:13;4.03;;;2.15;;
48859;SDS011;34679;51.436;-2.518;2023-02-28T00:57:39;7.30;;;1.98;;
48859;SDS011;34679;51.436;-2.518;2023-02-28T01:00:05;6.28;;;2.33;;
48859;SDS011;34679;51.436;-2.518;2023-02-28T01:02:31;8.43;;;1.77;;
48859;SDS011;34679;51.436;-2.518;2023-02-28T01:04:57;4.88;;;2.13;;
48859;SDS011;34679;51.436;-2.518;2023-02-28T01:07:23;5.97;;;1.80;;
48859;SDS011;34679;51.436;-2.518;2023-02-28T01:09:49;15.85;;;1.90;;
48859;SDS011;34679;51.436;-2.518;2023-02-28T01:12:15;7.13;;;2.00;;
48859;SDS011;34679;51.436;-2.518;2023-02-28T01:14:41;11.55;;;2.10;;
48859;SDS011;34679;51.436;-2.518;2023-02-28T01:17:07;6.78;;;1.90;;
48859;SDS011;34679;51.436;-2.518;2023-02-28T01:19:33;7.10;;;2.10;;
48859;SDS011;34679;51.436;-2.518;2023-02-28T01:22:05;12.70;;;2.25;;
48859;SDS011;34679;51.436;-2.518;2023-02-28T01:24:31;4.10;;;1.92;;
48859;SDS011;34679;51.436;-2.518;2023-02-28T01:26:57;8.35;;;2.22;;
48859;SDS011;34679;51.436;-2.518;2023-02-28T01:29:23;7.00;;;2.20;;
48859;SDS011;34679;51.436;-2.518;2023-02-28T01:31:49;4.47;;;2.00;;
48859;SDS011;34679;51.436;-2.518;2023-02-28T01:34:15;3.40;;;1.83;;
48859;SDS011;34679;51.436;-2.518;2023-02-28T01:36:41;7.78;;;1.90;;
48859;SDS011;34679;51.436;-2.518;2023-02-28T01:39:07;7.40;;;2.28;;
48859;SDS011;34679;51.436;-2.518;2023-02-28T01:41:33;11.25;;;2.90;;
48859;SDS011;34679;51.436;-2.518;2023-02-28T01:47:11;10.05;;;2.42;;
48859;SDS011;34679;51.436;-2.518;2023-02-28T01:49:37;6.00;;;2.38;;
48859;SDS011;34679;51.436;-2.518;2023-02-28T01:52:04;10.65;;;2.60;;
48859;SDS011;34679;51.436;-2.518;2023-02-28T01:54:30;9.88;;;2.53;;
48859;SDS011;34679;51.436;-2.518;2023-02-28T01:57:05;10.32;;;2.85;;
48859;SDS011;34679;51.436;-2.518;2023-02-28T01:59:37;10.00;;;2.55;;
48859;SDS011;34679;51.436;-2.518;2023-02-28T02:02:11;9.63;;;3.13;;
48859;SDS011;34679;51.436;-2.518;2023-02-28T02:04:43;19.50;;;3.25;;
48859;SDS011;34679;51.436;-2.518;2023-02-28T02:07:16;7.88;;;2.60;;
48859;SDS011;34679;51.436;-2.518;2023-02-28T02:09:42;7.18;;;2.30;;
48859;SDS011;34679;51.436;-2.518;2023-02-28T02:12:33;16.52;;;2.78;;
48859;SDS011;34679;51.436;-2.518;2023-02-28T02:15:13;6.70;;;2.30;;
48859;SDS011;34679;51.436;-2.518;2023-02-28T02:17:51;5.28;;;2.75;;
48859;SDS011;34679;51.436;-2.518;2023-02-28T02:25:56;5.68;;;3.08;;
48859;SDS011;34679;51.436;-2.518;2023-02-28T02:28:56;6.65;;;2.63;;
48859;SDS011;34679;51.436;-2.518;2023-02-28T02:37:50;4.10;;;2.35;;
48859;SDS011;34679;51.436;-2.518;2023-02-28T02:40:20;8.57;;;3.05;;
48859;SDS011;34679;51.436;-2.518;2023-02-28T02:45:31;15.90;;;3.08;;
48859;SDS011;34679;51.436;-2.518;2023-02-28T02:48:15;10.48;;;2.50;;
48859;SDS011;34679;51.436;-2.518;2023-02-28T02:51:06;12.15;;;2.70;;
48859;SDS011;34679;51.436;-2.518;2023-02-28T02:53:38;6.70;;;2.67;;
48859;SDS011;34679;51.436;-2.518;2023-02-28T02:56:09;5.25;;;2.78;;
48859;SDS011;34679;51.436;-2.518;2023-02-28T02:58:38;4.32;;;2.15;;
48859;SDS011;34679;51.436;-2.518;2023-02-28T03:01:07;4.63;;;2.42;;
48859;SDS011;34679;51.436;-2.518;2023-02-28T03:03:35;9.68;;;2.45;;
48859;SDS011;34679;51.436;-2.518;2023-02-28T03:06:02;9.43;;;2.15;;
48859;SDS011;34679;51.436;-2.518;2023-02-28T03:08:29;8.52;;;2.80;;
48859;SDS011;34679;51.436;-2.518;2023-02-28T03:11:03;8.80;;;2.15;;
48859;SDS011;34679;51.436;-2.518;2023-02-28T03:24:33;4.07;;;1.75;;
48859;SDS011;34679;51.436;-2.518;2023-02-28T03:27:09;6.40;;;1.90;;
48859;SDS011;34679;51.436;-2.518;2023-02-28T03:29:46;4.03;;;1.95;;
48859;SDS011;34679;51.436;-2.518;2023-02-28T03:32:21;6.38;;;2.17;;
48859;SDS011;34679;51.436;-2.518;2023-02-28T03:34:59;5.30;;;1.90;;
48859;SDS011;34679;51.436;-2.518;2023-02-28T03:37:31;5.93;;;1.80;;
48859;SDS011;34679;51.436;-2.518;2023-02-28T03:40:02;4.82;;;2.30;;
48859;SDS011;34679;51.436;-2.518;2023-02-28T03:42:34;5.72;;;2.60;;
48859;SDS011;34679;51.436;-2.518;2023-02-28T03:45:10;6.10;;;2.20;;
48859;SDS011;34679;51.436;-2.518;2023-02-28T03:48:08;6.15;;;2.17;;
48859;SDS011;34679;51.436;-2.518;2023-02-28T03:50:53;6.57;;;2.10;;
48859;SDS011;34679;51.436;-2.518;2023-02-28T03:53:27;2.03;;;1.70;;
48859;SDS011;34679;51.436;-2.518;2023-02-28T03:55:59;6.15;;;2.38;;
48859;SDS011;34679;51.436;-2.518;2023-02-28T04:01:20;4.18;;;2.88;;
48859;SDS011;34679;51.436;-2.518;2023-02-28T04:04:00;10.35;;;2.33;;
48859;SDS011;34679;51.436;-2.518;2023-02-28T04:06:27;5.22;;;2.63;;
48859;SDS011;34679;51.436;-2.518;2023-02-28T04:08:55;7.68;;;2.92;;
48859;SDS011;34679;51.436;-2.518;2023-02-28T04:13:57;4.93;;;2.97;;
48859;SDS011;34679;51.436;-2.518;2023-02-28T04:16:23;9.23;;;3.10;;
48859;SDS011;34679;51.436;-2.518;2023-02-28T04:18:49;6.15;;;3.42;;
48859;SDS011;34679;51.436;-2.518;2023-02-28T04:21:14;6.32;;;2.92;;
48859;SDS011;34679;51.436;-2.518;2023-02-28T04:23:40;7.57;;;2.80;;
48859;SDS011;34679;51.436;-2.518;2023-02-28T04:26:06;8.73;;;3.35;;
48859;SDS011;34679;51.436;-2.518;2023-02-28T04:28:32;9.73;;;3.05;;
48859;SDS011;34679;51.436;-2.518;2023-02-28T04:31:02;7.30;;;2.90;;
48859;SDS011;34679;51.436;-2.518;2023-02-28T04:33:29;6.10;;;2.97;;
48859;SDS011;34679;51.436;-2.518;2023-02-28T04:36:04;4.25;;;2.85;;
48859;SDS011;34679;51.436;-2.518;2023-02-28T04:38:35;7.32;;;3.17;;
48859;SDS011;34679;51.436;-2.518;2023-02-28T04:41:02;8.75;;;3.05;;
48859;SDS011;34679;51.436;-2.518;2023-02-28T04:43:28;10.60;;;3.65;;
48859;SDS011;34679;51.436;-2.518;2023-02-28T04:45:55;4.22;;;3.33;;
48859;SDS011;34679;51.436;-2.518;2023-02-28T04:48:22;7.43;;;2.78;;
48859;SDS011;34679;51.436;-2.518;2023-02-28T04:50:49;5.85;;;3.13;;
48859;SDS011;34679;51.436;-2.518;2023-02-28T04:53:15;6.35;;;3.70;;
48859;SDS011;34679;51.436;-2.518;2023-02-28T04:55:41;6.28;;;3.33;;
48859;SDS011;34679;51.436;-2.518;2023-02-28T04:58:06;9.43;;;4.20;;
48859;SDS011;34679;51.436;-2.518;2023-02-28T05:00:32;6.72;;;3.75;;
48859;SDS011;34679;51.436;-2.518;2023-02-28T05:02:58;6.22;;;3.00;;
48859;SDS011;34679;51.436;-2.518;2023-02-28T05:05:24;7.82;;;4.00;;
48859;SDS011;34679;51.436;-2.518;2023-02-28T05:07:49;5.10;;;4.20;;
48859;SDS011;34679;51.436;-2.518;2023-02-28T05:10:15;7.30;;;3.83;;
48859;SDS011;34679;51.436;-2.518;2023-02-28T05:12:41;9.20;;;3.38;;
48859;SDS011;34679;51.436;-2.518;2023-02-28T05:15:08;9.32;;;3.40;;
48859;SDS011;34679;51.436;-2.518;2023-02-28T05:17:37;6.90;;;4.35;;
48859;SDS011;34679;51.436;-2.518;2023-02-28T05:20:03;5.28;;;3.72;;
48859;SDS011;34679;51.436;-2.518;2023-02-28T05:22:30;5.40;;;3.55;;
48859;SDS011;34679;51.436;-2.518;2023-02-28T05:24:55;6.80;;;3.78;;
48859;SDS011;34679;51.436;-2.518;2023-02-28T05:27:21;5.03;;;3.35;;
48859;SDS011;34679;51.436;-2.518;2023-02-28T05:29:47;6.03;;;3.28;;
48859;SDS011;34679;51.436;-2.518;2023-02-28T05:32:14;5.72;;;3.60;;
48859;SDS011;34679;51.436;-2.518;2023-02-28T05:34:40;8.27;;;4.07;;
48859;SDS011;34679;51.436;-2.518;2023-02-28T05:37:06;7.85;;;3.05;;
48859;SDS011;34679;51.436;-2.518;2023-02-28T05:39:37;7.47;;;3.72;;
48859;SDS011;34679;51.436;-2.518;2023-02-28T05:42:03;8.75;;;2.83;;
48859;SDS011;34679;51.436;-2.518;2023-02-28T05:44:29;5.35;;;3.05;;
48859;SDS011;34679;51.436;-2.518;2023-02-28T05:46:55;3.42;;;2.70;;
48859;SDS011;34679;51.436;-2.518;2023-02-28T05:49:21;4.55;;;2.70;;
48859;SDS011;34679;51.436;-2.518;2023-02-28T05:51:46;3.67;;;2.85;;
48859;SDS011;34679;51.436;-2.518;2023-02-28T05:54:12;5.28;;;3.65;;
48859;SDS011;34679;51.436;-2.518;2023-02-28T05:56:38;3.95;;;3.22;;
48859;SDS011;34679;51.436;-2.518;2023-02-28T05:59:06;6.20;;;3.70;;
48859;SDS011;34679;51.436;-2.518;2023-02-28T06:01:41;4.03;;;3.45;;
48859;SDS011;34679;51.436;-2.518;2023-02-28T06:04:13;4.38;;;2.72;;
48859;SDS011;34679;51.436;-2.518;2023-02-28T06:06:43;5.65;;;3.58;;
48859;SDS011;34679;51.436;-2.518;2023-02-28T06:09:09;5.22;;;3.17;;
48859;SDS011;34679;51.436;-2.518;2023-02-28T06:11:35;4.47;;;2.92;;
48859;SDS011;34679;51.436;-2.518;2023-02-28T06:14:01;5.20;;;3.90;;
48859;SDS011;34679;51.436;-2.518;2023-02-28T06:16:27;5.78;;;3.85;;
48859;SDS011;34679;51.436;-2.518;2023-02-28T06:18:56;6.40;;;4.15;;
48859;SDS011;34679;51.436;-2.518;2023-02-28T06:21:22;5.00;;;4.20;;
48859;SDS011;34679;51.436;-2.518;2023-02-28T06:23:48;7.72;;;4.63;;
48859;SDS011;34679;51.436;-2.518;2023-02-28T06:26:14;5.05;;;4.55;;
48859;SDS011;34679;51.436;-2.518;2023-02-28T06:28:40;10.05;;;5.18;;
48859;SDS011;34679;51.436;-2.518;2023-02-28T06:31:10;10.77;;;6.07;;
48859;SDS011;34679;51.436;-2.518;2023-02-28T06:33:37;8.85;;;6.07;;
48859;SDS011;34679;51.436;-2.518;2023-02-28T06:36:03;7.93;;;6.53;;
48859;SDS011;34679;51.436;-2.518;2023-02-28T06:38:30;7.70;;;6.80;;
48859;SDS011;34679;51.436;-2.518;2023-02-28T06:40:57;7.47;;;6.05;;
48859;SDS011;34679;51.436;-2.518;2023-02-28T06:43:25;9.88;;;6.85;;
48859;SDS011;34679;51.436;-2.518;2023-02-28T06:45:56;9.23;;;6.35;;
48859;SDS011;34679;51.436;-2.518;2023-02-28T06:48:23;10.02;;;6.60;;
48859;SDS011;34679;51.436;-2.518;2023-02-28T06:50:49;7.72;;;5.28;;
48859;SDS011;34679;51.436;-2.518;2023-02-28T06:53:15;10.18;;;6.05;;
48859;SDS011;34679;51.436;-2.518;2023-02-28T06:55:41;8.20;;;6.05;;
48859;SDS011;34679;51.436;-2.518;2023-02-28T06:58:06;9.02;;;7.65;;
48859;SDS011;34679;51.436;-2.518;2023-02-28T07:00:44;9.95;;;8.60;;
48859;SDS011;34679;51.436;-2.518;2023-02-28T07:03:11;12.45;;;9.73;;
48859;SDS011;34679;51.436;-2.518;2023-02-28T07:05:38;16.40;;;10.73;;
48859;SDS011;34679;51.436;-2.518;2023-02-28T07:08:04;13.40;;;10.35;;
48859;SDS011;34679;51.436;-2.518;2023-02-28T07:10:31;14.02;;;11.13;;
48859;SDS011;34679;51.436;-2.518;2023-02-28T07:12:58;19.58;;;12.65;;
48859;SDS011;34679;51.436;-2.518;2023-02-28T07:15:24;16.50;;;13.57;;
48859;SDS011;34679;51.436;-2.518;2023-02-28T07:17:50;19.05;;;12.88;;
48859;SDS011;34679;51.436;-2.518;2023-02-28T07:20:16;20.35;;;14.50;;
48859;SDS011;34679;51.436;-2.518;2023-02-28T07:22:42;21.42;;;14.73;;
48859;SDS011;34679;51.436;-2.518;2023-02-28T07:25:08;20.50;;;15.00;;
48859;SDS011;34679;51.436;-2.518;2023-02-28T07:27:34;24.23;;;16.00;;
48859;SDS011;34679;51.436;-2.518;2023-02-28T07:30:00;19.33;;;14.80;;
48859;SDS011;34679;51.436;-2.518;2023-02-28T07:32:28;20.90;;;15.57;;
48859;SDS011;34679;51.436;-2.518;2023-02-28T07:34:54;24.15;;;16.13;;
48859;SDS011;34679;51.436;-2.518;2023-02-28T07:37:20;22.88;;;17.13;;
48859;SDS011;34679;51.436;-2.518;2023-02-28T07:39:46;20.77;;;16.85;;
48859;SDS011;34679;51.436;-2.518;2023-02-28T07:42:11;20.00;;;15.50;;
48859;SDS011;34679;51.436;-2.518;2023-02-28T07:44:40;23.05;;;17.08;;
48859;SDS011;34679;51.436;-2.518;2023-02-28T07:47:10;24.20;;;15.85;;
48859;SDS011;34679;51.436;-2.518;2023-02-28T07:49:36;23.90;;;17.00;;
48859;SDS011;34679;51.436;-2.518;2023-02-28T07:52:03;24.65;;;17.30;;
48859;SDS011;34679;51.436;-2.518;2023-02-28T07:54:30;22.88;;;16.65;;
48859;SDS011;34679;51.436;-2.518;2023-02-28T07:56:55;25.40;;;17.38;;
48859;SDS011;34679;51.436;-2.518;2023-02-28T07:59:21;21.83;;;16.73;;
48859;SDS011;34679;51.436;-2.518;2023-02-28T08:01:47;25.15;;;16.60;;
48859;SDS011;34679;51.436;-2.518;2023-02-28T08:04:15;23.10;;;16.35;;
48859;SDS011;34679;51.436;-2.518;2023-02-28T08:06:41;20.52;;;16.10;;
48859;SDS011;34679;51.436;-2.518;2023-02-28T08:09:07;19.92;;;15.77;;
48859;SDS011;34679;51.436;-2.518;2023-02-28T08:11:33;21.65;;;15.52;;
48859;SDS011;34679;51.436;-2.518;2023-02-28T08:13:58;21.30;;;15.98;;
48859;SDS011;34679;51.436;-2.518;2023-02-28T08:16:24;25.23;;;15.60;;
48859;SDS011;34679;51.436;-2.518;2023-02-28T08:18:53;18.63;;;14.30;;
48859;SDS011;34679;51.436;-2.518;2023-02-28T08:21:19;19.35;;;14.45;;
48859;SDS011;34679;51.436;-2.518;2023-02-28T08:23:49;18.83;;;14.00;;
48859;SDS011;34679;51.436;-2.518;2023-02-28T08:26:16;18.73;;;14.40;;
48859;SDS011;34679;51.436;-2.518;2023-02-28T08:28:42;16.80;;;13.65;;
48859;SDS011;34679;51.436;-2.518;2023-02-28T08:31:10;16.83;;;13.55;;
48859;SDS011;34679;51.436;-2.518;2023-02-28T08:33:37;16.58;;;13.35;;
48859;SDS011;34679;51.436;-2.518;2023-02-28T08:36:04;18.35;;;13.75;;
48859;SDS011;34679;51.436;-2.518;2023-02-28T08:38:30;19.95;;;14.70;;
48859;SDS011;34679;51.436;-2.518;2023-02-28T08:40:57;16.92;;;13.00;;
48859;SDS011;34679;51.436;-2.518;2023-02-28T08:43:24;13.90;;;11.98;;
48859;SDS011;34679;51.436;-2.518;2023-02-28T08:45:53;15.18;;;13.27;;
48859;SDS011;34679;51.436;-2.518;2023-02-28T08:48:22;16.40;;;11.50;;
48859;SDS011;34679;51.436;-2.518;2023-02-28T08:50:58;13.98;;;11.48;;
48859;SDS011;34679;51.436;-2.518;2023-02-28T08:53:29;13.85;;;11.32;;
48859;SDS011;34679;51.436;-2.518;2023-02-28T08:56:05;14.35;;;11.25;;
48859;SDS011;34679;51.436;-2.518;2023-02-28T08:58:36;14.25;;;11.93;;
48859;SDS011;34679;51.436;-2.518;2023-02-28T09:01:18;13.38;;;11.10;;
48859;SDS011;34679;51.436;-2.518;2023-02-28T09:03:46;13.77;;;11.70;;
48859;SDS011;34679;51.436;-2.518;2023-02-28T09:06:14;12.45;;;11.10;;
48859;SDS011;34679;51.436;-2.518;2023-02-28T09:08:42;12.88;;;10.77;;
48859;SDS011;34679;51.436;-2.518;2023-02-28T09:11:08;14.88;;;11.52;;
48859;SDS011;34679;51.436;-2.518;2023-02-28T09:13:34;16.17;;;11.77;;
48859;SDS011;34679;51.436;-2.518;2023-02-28T09:16:01;17.33;;;11.30;;
48859;SDS011;34679;51.436;-2.518;2023-02-28T09:18:29;13.43;;;10.90;;
48859;SDS011;34679;51.436;-2.518;2023-02-28T09:20:55;12.13;;;10.90;;
48859;SDS011;34679;51.436;-2.518;2023-02-28T09:23:21;14.00;;;11.10;;
48859;SDS011;34679;51.436;-2.518;2023-02-28T09:25:47;14.05;;;11.57;;
48859;SDS011;34679;51.436;-2.518;2023-02-28T09:28:15;12.57;;;11.30;;
48859;SDS011;34679;51.436;-2.518;2023-02-28T09:30:42;12.35;;;10.68;;
48859;SDS011;34679;51.436;-2.518;2023-02-28T09:33:12;13.15;;;11.75;;
48859;SDS011;34679;51.436;-2.518;2023-02-28T09:35:38;16.08;;;12.48;;
48859;SDS011;34679;51.436;-2.518;2023-02-28T09:38:04;19.48;;;13.52;;
48859;SDS011;34679;51.436;-2.518;2023-02-28T09:40:30;15.65;;;12.13;;
48859;SDS011;34679;51.436;-2.518;2023-02-28T09:42:57;23.70;;;14.35;;
48859;SDS011;34679;51.436;-2.518;2023-02-28T09:45:26;19.05;;;14.68;;
48859;SDS011;34679;51.436;-2.518;2023-02-28T09:48:16;18.48;;;12.95;;
48859;SDS011;34679;51.436;-2.518;2023-02-28T09:50:48;18.00;;;13.23;;
48859;SDS011;34679;51.436;-2.518;2023-02-28T09:55:59;14.33;;;12.40;;
48859;SDS011;34679;51.436;-2.518;2023-02-28T09:58:37;17.30;;;12.25;;
48859;SDS011;34679;51.436;-2.518;2023-02-28T10:07:10;16.23;;;12.07;;
48859;SDS011;34679;51.436;-2.518;2023-02-28T10:09:57;14.75;;;11.57;;
48859;SDS011;34679;51.436;-2.518;2023-02-28T10:12:27;16.13;;;11.80;;
48859;SDS011;34679;51.436;-2.518;2023-02-28T10:14:57;13.75;;;10.55;;
48859;SDS011;34679;51.436;-2.518;2023-02-28T10:17:30;12.98;;;11.05;;
48859;SDS011;34679;51.436;-2.518;2023-02-28T10:22:58;11.23;;;9.60;;
48859;SDS011;34679;51.436;-2.518;2023-02-28T10:25:33;12.15;;;10.82;;
48859;SDS011;34679;51.436;-2.518;2023-02-28T10:28:07;16.15;;;10.20;;
48859;SDS011;34679;51.436;-2.518;2023-02-28T10:30:39;14.60;;;9.88;;
48859;SDS011;34679;51.436;-2.518;2023-02-28T10:33:15;11.20;;;9.52;;
48859;SDS011;34679;51.436;-2.518;2023-02-28T10:36:13;10.95;;;9.60;;
48859;SDS011;34679;51.436;-2.518;2023-02-28T10:38:41;10.15;;;8.32;;
48859;SDS011;34679;51.436;-2.518;2023-02-28T10:41:09;12.68;;;9.18;;
48859;SDS011;34679;51.436;-2.518;2023-02-28T10:43:37;11.88;;;9.75;;
48859;SDS011;34679;51.436;-2.518;2023-02-28T10:51:14;11.43;;;9.13;;
48859;SDS011;34679;51.436;-2.518;2023-02-28T10:53:51;12.18;;;9.00;;
48859;SDS011;34679;51.436;-2.518;2023-02-28T10:56:19;12.27;;;9.55;;
48859;SDS011;34679;51.436;-2.518;2023-02-28T11:03:55;15.43;;;10.20;;
48859;SDS011;34679;51.436;-2.518;2023-02-28T11:06:23;15.40;;;10.05;;
48859;SDS011;34679;51.436;-2.518;2023-02-28T11:08:55;15.68;;;9.90;;
48859;SDS011;34679;51.436;-2.518;2023-02-28T11:11:29;10.95;;;9.18;;
48859;SDS011;34679;51.436;-2.518;2023-02-28T11:14:06;13.25;;;10.38;;
48859;SDS011;34679;51.436;-2.518;2023-02-28T11:16:50;17.90;;;10.20;;
48859;SDS011;34679;51.436;-2.518;2023-02-28T11:19:34;14.70;;;9.65;;
48859;SDS011;34679;51.436;-2.518;2023-02-28T11:22:10;11.57;;;9.60;;
48859;SDS011;34679;51.436;-2.518;2023-02-28T11:24:43;13.35;;;10.63;;
48859;SDS011;34679;51.436;-2.518;2023-02-28T11:29:56;11.95;;;10.18;;
48859;SDS011;34679;51.436;-2.518;2023-02-28T11:32:24;15.32;;;9.82;;
48859;SDS011;34679;51.436;-2.518;2023-02-28T11:37:34;16.33;;;9.85;;
48859;SDS011;34679;51.436;-2.518;2023-02-28T11:40:00;13.48;;;10.00;;
48859;SDS011;34679;51.436;-2.518;2023-02-28T11:53:56;13.95;;;10.52;;
48859;SDS011;34679;51.436;-2.518;2023-02-28T12:01:43;18.67;;;11.35;;
48859;SDS011;34679;51.436;-2.518;2023-02-28T12:07:06;11.43;;;10.20;;
48859;SDS011;34679;51.436;-2.518;2023-02-28T12:12:44;15.25;;;9.88;;
48859;SDS011;34679;51.436;-2.518;2023-02-28T12:18:07;10.90;;;8.20;;
48859;SDS011;34679;51.436;-2.518;2023-02-28T12:28:49;9.07;;;8.00;;
48859;SDS011;34679;51.436;-2.518;2023-02-28T12:31:23;8.77;;;7.80;;
48859;SDS011;34679;51.436;-2.518;2023-02-28T12:33:56;9.82;;;8.18;;
48859;SDS011;34679;51.436;-2.518;2023-02-28T12:36:28;10.02;;;7.22;;
48859;SDS011;34679;51.436;-2.518;2023-02-28T12:38:56;9.90;;;7.47;;
48859;SDS011;34679;51.436;-2.518;2023-02-28T12:41:54;8.88;;;7.78;;
48859;SDS011;34679;51.436;-2.518;2023-02-28T12:47:09;7.47;;;6.50;;
48859;SDS011;34679;51.436;-2.518;2023-02-28T12:49:51;9.82;;;7.60;;
48859;SDS011;34679;51.436;-2.518;2023-02-28T12:52:29;8.48;;;6.60;;
48859;SDS011;34679;51.436;-2.518;2023-02-28T12:58:17;6.60;;;6.00;;
48859;SDS011;34679;51.436;-2.518;2023-02-28T13:07:14;6.57;;;5.50;;
48859;SDS011;34679;51.436;-2.518;2023-02-28T13:09:51;6.78;;;6.07;;
48859;SDS011;34679;51.436;-2.518;2023-02-28T13:12:18;6.93;;;6.07;;
48859;SDS011;34679;51.436;-2.518;2023-02-28T13:14:45;8.65;;;6.05;;
48859;SDS011;34679;51.436;-2.518;2023-02-28T13:17:12;12.90;;;5.70;;
48859;SDS011;34679;51.436;-2.518;2023-02-28T13:20:13;6.80;;;6.15;;
48859;SDS011;34679;51.436;-2.518;2023-02-28T13:22:49;6.88;;;5.30;;
48859;SDS011;34679;51.436;-2.518;2023-02-28T13:27:46;11.95;;;5.95;;
48859;SDS011;34679;51.436;-2.518;2023-02-28T13:36:08;9.10;;;6.05;;
48859;SDS011;34679;51.436;-2.518;2023-02-28T13:38:43;8.38;;;6.13;;
48859;SDS011;34679;51.436;-2.518;2023-02-28T13:46:28;9.95;;;6.82;;
48859;SDS011;34679;51.436;-2.518;2023-02-28T13:48:55;7.88;;;6.88;;
48859;SDS011;34679;51.436;-2.518;2023-02-28T13:51:34;7.85;;;6.70;;
48859;SDS011;34679;51.436;-2.518;2023-02-28T13:57:12;7.40;;;6.07;;
48859;SDS011;34679;51.436;-2.518;2023-02-28T14:05:41;7.05;;;5.47;;
48859;SDS011;34679;51.436;-2.518;2023-02-28T14:08:12;7.55;;;6.22;;
48859;SDS011;34679;51.436;-2.518;2023-02-28T14:10:44;8.52;;;5.80;;
48859;SDS011;34679;51.436;-2.518;2023-02-28T14:18:31;6.57;;;4.93;;
48859;SDS011;34679;51.436;-2.518;2023-02-28T14:20:58;5.63;;;4.65;;
48859;SDS011;34679;51.436;-2.518;2023-02-28T14:37:40;4.50;;;4.10;;
48859;SDS011;34679;51.436;-2.518;2023-02-28T14:40:19;4.72;;;3.83;;
48859;SDS011;34679;51.436;-2.518;2023-02-28T14:42:55;4.82;;;3.65;;
48859;SDS011;34679;51.436;-2.518;2023-02-28T14:45:48;4.55;;;3.78;;
48859;SDS011;34679;51.436;-2.518;2023-02-28T14:48:16;4.97;;;4.20;;
48859;SDS011;34679;51.436;-2.518;2023-02-28T14:50:48;6.47;;;4.05;;
48859;SDS011;34679;51.436;-2.518;2023-02-28T14:53:19;2.75;;;2.55;;
48859;SDS011;34679;51.436;-2.518;2023-02-28T14:55:47;4.82;;;3.38;;
48859;SDS011;34679;51.436;-2.518;2023-02-28T14:58:22;4.32;;;3.92;;
48859;SDS011;34679;51.436;-2.518;2023-02-28T15:00:53;5.68;;;3.30;;
48859;SDS011;34679;51.436;-2.518;2023-02-28T15:03:27;4.00;;;2.90;;
48859;SDS011;34679;51.436;-2.518;2023-02-28T15:05:55;3.50;;;3.00;;
48859;SDS011;34679;51.436;-2.518;2023-02-28T15:08:23;3.20;;;2.80;;
48859;SDS011;34679;51.436;-2.518;2023-02-28T15:10:54;5.10;;;3.53;;
48859;SDS011;34679;51.436;-2.518;2023-02-28T15:13:20;2.88;;;2.63;;
48859;SDS011;34679;51.436;-2.518;2023-02-28T15:15:52;5.95;;;2.95;;
48859;SDS011;34679;51.436;-2.518;2023-02-28T15:21:13;3.22;;;2.92;;
48859;SDS011;34679;51.436;-2.518;2023-02-28T15:23:50;3.53;;;3.20;;
48859;SDS011;34679;51.436;-2.518;2023-02-28T15:26:42;5.35;;;3.58;;
48859;SDS011;34679;51.436;-2.518;2023-02-28T15:29:14;4.60;;;3.70;;
48859;SDS011;34679;51.436;-2.518;2023-02-28T15:31:45;5.47;;;3.80;;
48859;SDS011;34679;51.436;-2.518;2023-02-28T15:34:18;4.03;;;3.40;;
48859;SDS011;34679;51.436;-2.518;2023-02-28T15:36:47;3.42;;;3.13;;
48859;SDS011;34679;51.436;-2.518;2023-02-28T15:39:23;4.80;;;4.05;;
48859;SDS011;34679;51.436;-2.518;2023-02-28T15:41:52;4.15;;;3.75;;
48859;SDS011;34679;51.436;-2.518;2023-02-28T15:44:34;3.80;;;3.50;;
48859;SDS011;34679;51.436;-2.518;2023-02-28T15:47:11;4.20;;;3.75;;
48859;SDS011;34679;51.436;-2.518;2023-02-28T15:52:13;5.63;;;2.92;;
48859;SDS011;34679;51.436;-2.518;2023-02-28T15:54:41;5.63;;;3.17;;
48859;SDS011;34679;51.436;-2.518;2023-02-28T15:57:20;3.80;;;2.88;;
48859;SDS011;34679;51.436;-2.518;2023-02-28T15:59:54;4.20;;;3.40;;
48859;SDS011;34679;51.436;-2.518;2023-02-28T16:02:35;4.63;;;3.25;;
48859;SDS011;34679;51.436;-2.518;2023-02-28T16:05:17;2.88;;;2.55;;
48859;SDS011;34679;51.436;-2.518;2023-02-28T16:07:44;3.38;;;2.80;;
48859;SDS011;34679;51.436;-2.518;2023-02-28T16:10:11;6.70;;;2.63;;
48859;SDS011;34679;51.436;-2.518;2023-02-28T16:12:39;3.03;;;2.70;;
48859;SDS011;34679;51.436;-2.518;2023-02-28T16:15:14;4.75;;;2.97;;
48859;SDS011;34679;51.436;-2.518;2023-02-28T16:17:44;4.43;;;2.90;;
48859;SDS011;34679;51.436;-2.518;2023-02-28T16:20:32;5.68;;;2.78;;
48859;SDS011;34679;51.436;-2.518;2023-02-28T16:22:57;2.95;;;2.75;;
48859;SDS011;34679;51.436;-2.518;2023-02-28T16:25:33;3.10;;;2.85;;
48859;SDS011;34679;51.436;-2.518;2023-02-28T16:28:01;4.15;;;2.75;;
48859;SDS011;34679;51.436;-2.518;2023-02-28T16:30:27;4.00;;;3.35;;
48859;SDS011;34679;51.436;-2.518;2023-02-28T16:32:56;3.97;;;2.65;;
48859;SDS011;34679;51.436;-2.518;2023-02-28T16:35:23;3.92;;;2.50;;
48859;SDS011;34679;51.436;-2.518;2023-02-28T16:37:52;5.63;;;2.88;;
48859;SDS011;34679;51.436;-2.518;2023-02-28T16:40:20;2.40;;;2.20;;
48859;SDS011;34679;51.436;-2.518;2023-02-28T16:42:48;3.00;;;2.55;;
48859;SDS011;34679;51.436;-2.518;2023-02-28T16:45:23;3.60;;;2.10;;
48859;SDS011;34679;51.436;-2.518;2023-02-28T16:47:50;2.58;;;2.38;;
48859;SDS011;34679;51.436;-2.518;2023-02-28T16:50:18;5.75;;;2.65;;
48859;SDS011;34679;51.436;-2.518;2023-02-28T16:52:45;2.90;;;2.60;;
48859;SDS011;34679;51.436;-2.518;2023-02-28T16:55:11;2.85;;;2.50;;
48859;SDS011;34679;51.436;-2.518;2023-02-28T16:57:37;4.45;;;2.40;;
48859;SDS011;34679;51.436;-2.518;2023-02-28T17:00:04;2.65;;;2.10;;
48859;SDS011;34679;51.436;-2.518;2023-02-28T17:02:33;2.50;;;2.28;;
48859;SDS011;34679;51.436;-2.518;2023-02-28T17:04:59;4.38;;;2.00;;
48859;SDS011;34679;51.436;-2.518;2023-02-28T17:07:24;3.10;;;2.50;;
48859;SDS011;34679;51.436;-2.518;2023-02-28T17:09:50;2.58;;;2.35;;
48859;SDS011;34679;51.436;-2.518;2023-02-28T17:12:16;4.78;;;2.40;;
48859;SDS011;34679;51.436;-2.518;2023-02-28T17:14:42;5.45;;;2.90;;
48859;SDS011;34679;51.436;-2.518;2023-02-28T17:17:09;5.70;;;2.92;;